createdAt,value
2019-02-05T00:01:15.806Z,11.70
2019-02-05T00:04:00.926Z,10.97
2019-02-05T00:06:33.531Z,9.70
2019-02-05T00:09:18.152Z,10.90
2019-02-05T00:12:03.386Z,8.23
2019-02-05T00:14:48.300Z,8.77
2019-02-05T00:17:33.046Z,11.80
2019-02-05T00:20:18.358Z,8.13
2019-02-05T00:23:03.225Z,8.70
2019-02-05T00:25:47.931Z,10.63
2019-02-05T00:28:33.136Z,8.20
2019-02-05T00:31:18.050Z,8.40
2019-02-05T00:34:03.394Z,11.83
2019-02-05T00:36:48.753Z,10.87
2019-02-05T00:39:33.404Z,8.90
2019-02-05T00:42:18.514Z,11.93
2019-02-05T00:45:03.810Z,9.43
2019-02-05T00:47:49.031Z,9.83
2019-02-05T00:50:33.674Z,9.67
2019-02-05T00:53:06.090Z,8.77
2019-02-05T00:55:51.230Z,8.70
2019-02-05T00:58:36.261Z,8.07
2019-02-05T01:01:08.552Z,10.17
2019-02-05T01:03:41.276Z,9.47
2019-02-05T01:06:33.082Z,9.93
2019-02-05T01:09:18.122Z,8.77
2019-02-05T01:12:01.102Z,9.93
2019-02-05T01:14:33.234Z,8.03
2019-02-05T01:17:18.234Z,9.87
2019-02-05T01:20:03.438Z,10.53
2019-02-05T01:22:36.481Z,8.13
2019-02-05T01:25:21.931Z,10.37
2019-02-05T01:28:07.458Z,7.53
2019-02-05T01:30:52.184Z,8.63
2019-02-05T01:33:37.515Z,8.70
2019-02-05T01:36:09.925Z,10.63
2019-02-05T01:38:54.850Z,9.57
2019-02-05T01:41:40.019Z,14.10
2019-02-05T01:44:25.071Z,15.87
2019-02-05T01:47:10.349Z,14.43
2019-02-05T01:49:55.490Z,15.53
2019-02-05T01:52:40.176Z,12.53
2019-02-05T01:55:25.254Z,14.70
2019-02-05T01:57:57.557Z,12.37
2019-02-05T02:00:32.543Z,12.77
2019-02-05T02:03:24.853Z,10.67
2019-02-05T02:06:11.365Z,9.97
2019-02-05T02:08:56.402Z,8.83
2019-02-05T02:11:42.247Z,9.53
2019-02-05T02:14:27.318Z,7.70
2019-02-05T02:17:12.795Z,8.13
2019-02-05T02:19:57.563Z,8.57
2019-02-05T02:22:42.581Z,11.30
2019-02-05T02:25:27.657Z,7.73
2019-02-05T02:28:12.715Z,9.80
2019-02-05T02:30:58.303Z,11.73
2019-02-05T02:33:43.099Z,9.40
2019-02-05T02:36:28.174Z,7.37
2019-02-05T02:39:12.882Z,8.13
2019-02-05T02:41:58.001Z,9.27
2019-02-05T02:44:30.238Z,8.43
2019-02-05T02:47:22.167Z,8.17
2019-02-05T02:50:07.073Z,7.40
2019-02-05T02:52:51.953Z,7.97
2019-02-05T02:55:24.990Z,8.93
2019-02-05T02:58:17.399Z,8.17
2019-02-05T03:01:02.460Z,7.67
2019-02-05T03:03:47.270Z,9.93
2019-02-05T03:06:32.676Z,8.63
2019-02-05T03:09:17.725Z,9.93
2019-02-05T03:11:50.532Z,8.27
2019-02-05T03:14:42.474Z,8.77
2019-02-05T03:17:27.403Z,9.23
2019-02-05T03:20:12.423Z,7.17
2019-02-05T03:22:57.556Z,6.53
2019-02-05T03:25:42.574Z,8.70
2019-02-05T03:31:19.824Z,8.53
2019-02-05T03:34:04.748Z,7.33
2019-02-05T03:36:49.647Z,8.83
2019-02-05T03:39:21.859Z,9.57
2019-02-05T03:42:07.119Z,8.13
2019-02-05T03:44:52.214Z,10.00
2019-02-05T03:47:37.033Z,8.63
2019-02-05T03:50:21.985Z,8.50
2019-02-05T03:53:07.473Z,7.50
2019-02-05T03:56:20.092Z,10.13
2019-02-05T03:59:32.022Z,7.63
2019-02-05T04:02:16.737Z,8.67
2019-02-05T04:05:23.726Z,7.97
2019-02-05T04:08:08.849Z,7.00
2019-02-05T04:10:54.442Z,8.10
2019-02-05T04:14:13.228Z,7.97
2019-02-05T04:16:57.926Z,10.83
2019-02-05T04:19:42.984Z,7.97
2019-02-05T04:22:27.858Z,7.30
2019-02-05T04:25:13.101Z,8.77
2019-02-05T04:27:59.965Z,7.90
2019-02-05T04:30:45.280Z,9.27
2019-02-05T04:33:30.583Z,9.43
2019-02-05T04:36:15.362Z,7.80
2019-02-05T04:39:29.663Z,9.80
2019-02-05T04:42:14.817Z,11.47
2019-02-05T04:44:59.906Z,11.80
2019-02-05T04:47:45.075Z,9.97
2019-02-05T04:50:30.322Z,11.60
2019-02-05T04:53:15.083Z,8.97
2019-02-05T04:56:00.133Z,9.50
2019-02-05T04:58:45.684Z,9.07
2019-02-05T05:01:30.383Z,9.60
2019-02-05T05:04:15.568Z,12.90
2019-02-05T05:07:00.801Z,10.67
2019-02-05T05:09:46.002Z,11.53
2019-02-05T05:12:30.764Z,9.57
2019-02-05T05:15:15.729Z,12.90
2019-02-05T05:18:00.676Z,10.40
2019-02-05T05:20:45.798Z,13.60
2019-02-05T05:23:39.511Z,12.13
2019-02-05T05:26:24.902Z,11.27
2019-02-05T05:29:09.807Z,13.93
2019-02-05T05:31:54.605Z,10.97
2019-02-05T05:34:40.067Z,9.80
2019-02-05T05:37:24.637Z,8.60
2019-02-05T05:39:56.846Z,10.40
2019-02-05T05:43:10.283Z,10.97
2019-02-05T05:45:55.749Z,11.90
2019-02-05T05:48:40.769Z,10.50
2019-02-05T05:51:25.877Z,10.10
2019-02-05T05:54:10.722Z,9.93
2019-02-05T05:56:55.542Z,12.97
2019-02-05T05:59:40.686Z,9.43
2019-02-05T06:02:26.030Z,9.20
2019-02-05T06:05:11.130Z,14.57
2019-02-05T06:07:55.684Z,10.63
2019-02-05T06:10:40.399Z,9.67
2019-02-05T06:13:25.895Z,9.63
2019-02-05T06:16:11.496Z,10.13
2019-02-05T06:18:56.399Z,9.00
2019-02-05T06:21:41.438Z,9.67
2019-02-05T06:24:26.804Z,9.20
2019-02-05T06:26:59.688Z,10.30
2019-02-05T06:29:51.729Z,9.13
2019-02-05T06:32:37.201Z,9.40
2019-02-05T06:35:22.153Z,9.60
2019-02-05T06:38:07.386Z,7.87
2019-02-05T06:40:39.706Z,9.23
2019-02-05T06:43:31.410Z,10.77
2019-02-05T06:46:16.716Z,11.03
2019-02-05T06:49:02.071Z,12.83
2019-02-05T06:51:54.031Z,10.80
2019-02-05T06:54:39.336Z,8.87
2019-02-05T06:57:11.550Z,10.27
2019-02-05T07:00:04.897Z,8.93
2019-02-05T07:02:52.865Z,9.47
2019-02-05T07:05:24.054Z,10.70
2019-02-05T07:07:56.792Z,9.83
2019-02-05T07:10:42.410Z,9.20
2019-02-05T07:13:27.802Z,11.60
2019-02-05T07:16:00.433Z,11.50
2019-02-05T07:18:52.209Z,10.30
2019-02-05T07:21:37.404Z,13.30
2019-02-05T07:24:22.234Z,14.30
2019-02-05T07:27:07.757Z,11.70
2019-02-05T07:29:52.384Z,10.03
2019-02-05T07:32:37.319Z,10.80
2019-02-05T07:35:22.676Z,14.60
2019-02-05T07:38:07.758Z,13.13
2019-02-05T07:40:40.260Z,11.47
2019-02-05T07:43:12.395Z,12.40
2019-02-05T07:45:57.549Z,12.07
2019-02-05T07:48:43.484Z,11.33
2019-02-05T07:51:28.697Z,16.77
2019-02-05T07:54:13.944Z,12.30
2019-02-05T07:56:58.701Z,15.03
2019-02-05T07:59:43.646Z,14.67
2019-02-05T08:02:28.530Z,14.43
2019-02-05T08:05:13.465Z,11.93
2019-02-05T08:07:59.012Z,13.53
2019-02-05T08:10:44.610Z,13.07
2019-02-05T08:13:29.548Z,16.40
2019-02-05T08:16:14.742Z,14.47
2019-02-05T08:18:59.979Z,15.27
2019-02-05T08:21:45.174Z,15.47
2019-02-05T08:24:17.501Z,16.30
2019-02-05T08:27:02.982Z,12.47
2019-02-05T08:29:48.142Z,14.33
2019-02-05T08:32:33.501Z,13.73
2019-02-05T08:35:18.613Z,15.17
2019-02-05T08:38:03.643Z,13.63
2019-02-05T08:40:36.472Z,14.97
2019-02-05T08:43:36.410Z,13.83
2019-02-05T08:46:21.973Z,13.97
2019-02-05T08:49:06.881Z,26.70
2019-02-05T08:51:52.085Z,19.03
2019-02-05T08:54:24.863Z,19.40
2019-02-05T08:57:10.256Z,12.87
2019-02-05T08:59:42.585Z,15.23
2019-02-05T09:02:27.800Z,14.83
2019-02-05T09:07:45.770Z,16.37
2019-02-05T09:10:31.309Z,14.43
2019-02-05T09:13:16.232Z,11.67
2019-02-05T09:16:01.326Z,14.93
2019-02-05T09:18:46.741Z,11.83
2019-02-05T09:21:32.857Z,12.60
2019-02-05T09:24:05.429Z,15.60
2019-02-05T09:26:50.710Z,13.40
2019-02-05T09:29:35.569Z,12.20
2019-02-05T09:32:20.655Z,16.17
2019-02-05T09:35:12.968Z,15.17
2019-02-05T09:37:58.089Z,14.97
2019-02-05T09:40:43.069Z,13.13
2019-02-05T09:43:28.093Z,14.83
2019-02-05T09:46:13.131Z,16.27
2019-02-05T09:49:05.495Z,14.50
2019-02-05T09:51:50.195Z,13.30
2019-02-05T09:54:35.603Z,13.97
2019-02-05T09:57:20.345Z,16.00
2019-02-05T10:00:05.849Z,16.43
2019-02-05T10:02:51.371Z,16.73
2019-02-05T10:05:25.451Z,15.37
2019-02-05T10:08:10.329Z,16.47
2019-02-05T10:10:55.700Z,16.07
2019-02-05T10:13:40.861Z,16.80
2019-02-05T10:16:26.032Z,16.17
2019-02-05T10:19:11.390Z,14.53
2019-02-05T10:21:56.963Z,16.53
2019-02-05T10:24:41.912Z,16.70
2019-02-05T10:27:27.084Z,17.00
2019-02-05T10:30:12.685Z,15.03
2019-02-05T10:32:57.603Z,13.80
2019-02-05T10:35:42.899Z,15.43
2019-02-05T10:38:16.008Z,17.57
2019-02-05T10:40:49.512Z,18.33
2019-02-05T10:43:35.252Z,16.13
2019-02-05T10:49:33.101Z,16.90
2019-02-05T10:52:18.417Z,18.37
2019-02-05T10:55:03.409Z,18.93
2019-02-05T10:57:48.809Z,17.30
2019-02-05T11:00:33.641Z,12.93
2019-02-05T11:03:18.812Z,16.83
2019-02-05T11:06:03.983Z,15.00
2019-02-05T11:08:36.764Z,15.70
2019-02-05T11:11:29.087Z,17.00
2019-02-05T11:14:01.780Z,15.90
2019-02-05T11:16:53.734Z,13.70
2019-02-05T11:19:26.339Z,19.13
2019-02-05T11:21:59.056Z,16.30
2019-02-05T11:24:44.543Z,13.87
2019-02-05T11:27:30.746Z,14.87
2019-02-05T11:30:20.359Z,16.43
2019-02-05T11:33:02.533Z,14.53
2019-02-05T11:35:48.425Z,13.50
2019-02-05T11:38:33.577Z,15.00
2019-02-05T11:41:18.735Z,17.77
2019-02-05T11:44:03.685Z,18.93
2019-02-05T11:46:48.801Z,16.27
2019-02-05T11:49:21.293Z,16.37
2019-02-05T11:52:09.831Z,15.47
2019-02-05T11:54:54.906Z,15.83
2019-02-05T11:57:27.363Z,15.83
2019-02-05T12:03:39.239Z,20.50
2019-02-05T12:06:11.872Z,16.10
2019-02-05T12:08:57.286Z,15.63
2019-02-05T12:11:30.000Z,14.97
2019-02-05T12:14:02.338Z,18.93
2019-02-05T12:16:54.167Z,16.33
2019-02-05T12:19:38.970Z,14.40
2019-02-05T12:22:24.028Z,16.33
2019-02-05T12:25:08.777Z,15.47
2019-02-05T12:27:53.915Z,14.03
2019-02-05T12:30:45.067Z,15.70
2019-02-05T12:33:25.960Z,16.37
2019-02-05T12:36:11.399Z,17.03
2019-02-05T12:38:56.962Z,16.80
2019-02-05T12:41:42.608Z,18.00
2019-02-05T12:44:27.798Z,17.47
2019-02-05T12:47:00.326Z,16.97
2019-02-05T12:49:45.588Z,17.57
2019-02-05T12:52:31.022Z,15.83
2019-02-05T12:55:13.278Z,15.30
2019-02-05T12:58:17.914Z,17.20
2019-02-05T13:01:03.321Z,16.57
2019-02-05T13:03:48.717Z,17.77
2019-02-05T13:06:21.360Z,17.87
2019-02-05T13:08:54.133Z,19.87
2019-02-05T13:11:46.396Z,17.40
2019-02-05T13:14:31.541Z,22.23
2019-02-05T13:17:16.624Z,18.43
2019-02-05T13:20:01.597Z,18.27
2019-02-05T13:22:46.763Z,17.80
2019-02-05T13:25:31.908Z,19.57
2019-02-05T13:28:17.137Z,16.30
2019-02-05T13:31:08.278Z,17.50
2019-02-05T13:33:49.378Z,15.93
2019-02-05T13:36:22.674Z,16.43
2019-02-05T13:39:08.730Z,19.73
2019-02-05T13:41:53.477Z,19.20
2019-02-05T13:44:38.481Z,16.33
2019-02-05T13:47:24.749Z,19.33
2019-02-05T13:50:10.382Z,16.07
2019-02-05T13:52:55.678Z,15.53
2019-02-05T13:55:40.618Z,17.03
2019-02-05T13:58:25.766Z,17.87
2019-02-05T14:00:58.215Z,18.00
2019-02-05T14:03:30.573Z,18.43
2019-02-05T14:06:15.957Z,22.67
2019-02-05T14:09:10.294Z,15.07
2019-02-05T14:11:48.211Z,19.20
2019-02-05T14:14:20.979Z,16.90
2019-02-05T14:17:12.823Z,17.80
2019-02-05T14:19:58.205Z,16.97
2019-02-05T14:22:44.031Z,18.30
2019-02-05T14:25:29.310Z,16.00
2019-02-05T14:28:01.989Z,16.33
2019-02-05T14:30:47.339Z,17.73
2019-02-05T14:33:31.986Z,18.13
2019-02-05T14:36:17.499Z,15.83
2019-02-05T14:39:02.147Z,15.97
2019-02-05T14:41:47.760Z,17.50
2019-02-05T14:44:20.324Z,19.07
2019-02-05T14:47:12.572Z,18.00
2019-02-05T14:49:59.658Z,17.10
2019-02-05T14:52:45.105Z,17.83
2019-02-05T14:55:30.033Z,20.93
2019-02-05T14:58:15.246Z,16.70
2019-02-05T15:01:00.088Z,17.80
2019-02-05T15:03:33.058Z,16.33
2019-02-05T15:09:26.591Z,16.40
2019-02-05T15:12:11.247Z,17.87
2019-02-05T15:18:00.562Z,18.97
2019-02-05T15:20:45.631Z,19.97
2019-02-05T15:23:30.256Z,16.33
2019-02-05T15:26:02.700Z,18.13
2019-02-05T15:28:54.902Z,16.90
2019-02-05T15:31:27.566Z,16.63
2019-02-05T15:34:22.713Z,17.53
2019-02-05T15:37:07.633Z,13.97
2019-02-05T15:39:40.248Z,14.83
2019-02-05T15:42:25.345Z,21.37
2019-02-05T15:48:14.784Z,19.43
2019-02-05T15:50:59.364Z,17.80
2019-02-05T15:53:44.498Z,16.80
2019-02-05T15:56:29.570Z,15.63
2019-02-05T15:59:14.518Z,19.27
2019-02-05T16:01:46.970Z,14.90
2019-02-05T16:07:45.631Z,19.63
2019-02-05T16:10:30.969Z,19.03
2019-02-05T16:13:04.288Z,20.93
2019-02-05T16:15:49.765Z,20.80
2019-02-05T16:18:34.762Z,19.00
2019-02-05T16:21:19.919Z,17.77
2019-02-05T16:24:04.841Z,20.07
2019-02-05T16:26:49.957Z,17.70
2019-02-05T16:29:22.786Z,18.03
2019-02-05T16:32:17.355Z,17.13
2019-02-05T16:34:41.994Z,16.30
2019-02-05T16:37:27.405Z,18.37
2019-02-05T16:40:12.782Z,19.73
2019-02-05T16:42:45.137Z,19.27
2019-02-05T16:45:32.231Z,17.07
2019-02-05T16:48:17.707Z,17.23
2019-02-05T16:51:03.151Z,16.43
2019-02-05T16:53:48.609Z,21.40
2019-02-05T16:56:33.695Z,18.07
2019-02-05T16:59:06.111Z,21.77
2019-02-05T17:01:50.920Z,16.23
2019-02-05T17:04:23.361Z,18.47
2019-02-05T17:07:08.973Z,21.97
2019-02-05T17:09:41.076Z,17.20
2019-02-05T17:12:13.490Z,16.63
2019-02-05T17:15:05.946Z,20.97
2019-02-05T17:17:51.407Z,20.20
2019-02-05T17:20:36.498Z,19.50
2019-02-05T17:23:09.159Z,20.57
2019-02-05T17:25:54.302Z,18.73
2019-02-05T17:28:39.660Z,21.00
2019-02-05T17:31:25.648Z,16.83
2019-02-05T17:34:10.480Z,19.33
2019-02-05T17:36:55.155Z,19.60
2019-02-05T17:39:27.424Z,17.50
2019-02-05T17:42:19.273Z,20.17
2019-02-05T17:45:04.574Z,16.90
2019-02-05T17:47:49.444Z,15.40
2019-02-05T17:50:34.468Z,21.80
2019-02-05T17:53:19.298Z,17.80
2019-02-05T17:56:04.045Z,14.87
2019-02-05T17:58:49.471Z,15.33
2019-02-05T18:01:34.674Z,16.53
2019-02-05T18:04:19.519Z,13.40
2019-02-05T18:07:04.559Z,15.00
2019-02-05T18:09:36.789Z,13.20
2019-02-05T18:12:21.816Z,16.77
2019-02-05T18:15:06.981Z,17.70
2019-02-05T18:17:51.737Z,14.57
2019-02-05T18:20:37.057Z,17.07
2019-02-05T18:23:22.050Z,15.07
2019-02-05T18:26:07.312Z,16.73
2019-02-05T18:28:53.273Z,15.17
2019-02-05T18:31:38.121Z,20.27
2019-02-05T18:34:23.516Z,17.20
2019-02-05T18:37:08.897Z,20.27
2019-02-05T18:39:53.837Z,20.03
2019-02-05T18:42:39.576Z,18.87
2019-02-05T18:45:24.818Z,17.00
2019-02-05T18:48:09.683Z,17.27
2019-02-05T18:50:54.698Z,18.33
2019-02-05T18:53:39.969Z,19.20
2019-02-05T18:59:31.026Z,14.80
2019-02-05T19:02:16.210Z,19.47
2019-02-05T19:05:01.301Z,18.70
2019-02-05T19:07:46.656Z,17.27
2019-02-05T19:10:31.492Z,16.73
2019-02-05T19:13:16.633Z,16.40
2019-02-05T19:16:01.538Z,18.70
2019-02-05T19:18:46.353Z,18.73
2019-02-05T19:21:31.424Z,16.20
2019-02-05T19:27:16.441Z,19.00
2019-02-05T19:30:08.877Z,17.10
2019-02-05T19:32:55.724Z,20.67
2019-02-05T19:35:40.710Z,17.07
2019-02-05T19:38:26.311Z,18.23
2019-02-05T19:40:58.628Z,19.17
2019-02-05T19:43:43.485Z,21.93
2019-02-05T19:46:48.206Z,17.27
2019-02-05T19:49:36.100Z,15.27
2019-02-05T19:52:21.549Z,17.80
2019-02-05T19:54:53.810Z,18.63
2019-02-05T19:57:45.728Z,18.67
2019-02-05T20:00:30.953Z,18.33
2019-02-05T20:03:15.790Z,21.00
2019-02-05T20:06:01.395Z,19.93
2019-02-05T20:08:46.032Z,18.87
2019-02-05T20:11:31.030Z,20.43
2019-02-05T20:14:16.031Z,17.93
2019-02-05T20:17:00.949Z,18.80
2019-02-05T20:19:46.256Z,21.23
2019-02-05T20:22:31.241Z,20.77
2019-02-05T20:25:16.273Z,20.33
2019-02-05T20:28:01.209Z,19.93
2019-02-05T20:30:46.250Z,19.00
2019-02-05T20:33:31.357Z,16.17
2019-02-05T20:36:16.527Z,20.70
2019-02-05T20:38:48.736Z,19.87
2019-02-05T20:41:40.957Z,19.20
2019-02-05T20:44:26.104Z,16.50
2019-02-05T20:47:10.889Z,18.90
2019-02-05T20:49:55.498Z,18.77
2019-02-05T20:52:40.065Z,20.47
2019-02-05T20:55:13.268Z,17.20
2019-02-05T20:57:58.084Z,18.57
2019-02-05T21:00:42.919Z,19.53
2019-02-05T21:03:28.093Z,19.17
2019-02-05T21:06:13.175Z,20.83
2019-02-05T21:08:58.283Z,15.97
2019-02-05T21:11:43.511Z,21.03
2019-02-05T21:14:29.341Z,19.57
2019-02-05T21:17:14.312Z,18.10
2019-02-05T21:19:59.400Z,17.33
2019-02-05T21:22:32.081Z,20.93
2019-02-05T21:25:07.097Z,20.13
2019-02-05T21:27:52.298Z,21.37
2019-02-05T21:30:37.416Z,18.60
2019-02-05T21:33:23.087Z,20.10
2019-02-05T21:36:07.579Z,22.10
2019-02-05T21:38:52.985Z,20.43
2019-02-05T21:41:25.357Z,19.17
2019-02-05T21:44:11.146Z,18.30
2019-02-05T21:46:55.965Z,18.17
2019-02-05T21:49:40.903Z,20.77
2019-02-05T21:52:25.880Z,19.60
2019-02-05T21:55:11.041Z,20.77
2019-02-05T21:57:56.113Z,22.37
2019-02-05T22:00:41.419Z,18.63
2019-02-05T22:03:26.310Z,23.70
2019-02-05T22:06:11.225Z,19.73
2019-02-05T22:08:56.077Z,21.40
2019-02-05T22:11:41.187Z,20.17
2019-02-05T22:14:26.276Z,19.93
2019-02-05T22:17:11.342Z,20.80
2019-02-05T22:19:56.352Z,22.80
2019-02-05T22:22:41.553Z,23.97
2019-02-05T22:25:16.663Z,24.90
2019-02-05T22:28:10.431Z,22.20
2019-02-05T22:30:42.633Z,19.97
2019-02-05T22:33:28.175Z,21.20
2019-02-05T22:36:13.828Z,23.03
2019-02-05T22:38:58.676Z,21.50
2019-02-05T22:41:43.765Z,22.37
2019-02-05T22:44:28.804Z,25.50
2019-02-05T22:47:01.332Z,20.10
2019-02-05T22:49:46.716Z,23.67
2019-02-05T22:52:18.994Z,22.67
2019-02-05T22:55:03.644Z,21.53
2019-02-05T22:57:48.605Z,20.37
2019-02-05T23:00:39.797Z,23.07
2019-02-05T23:03:24.525Z,22.30
2019-02-05T23:06:10.433Z,20.80
2019-02-05T23:08:55.661Z,20.00
2019-02-05T23:12:07.008Z,21.77
2019-02-05T23:14:51.760Z,21.90
2019-02-05T23:17:37.080Z,21.07
2019-02-05T23:20:22.033Z,22.00
2019-02-05T23:23:07.097Z,24.90
2019-02-05T23:25:52.141Z,26.40
2019-02-05T23:28:37.167Z,19.67
2019-02-05T23:31:09.999Z,19.93
2019-02-05T23:33:44.607Z,22.23
2019-02-05T23:36:39.128Z,23.17
2019-02-05T23:39:24.054Z,22.50
2019-02-05T23:42:09.028Z,23.83
2019-02-05T23:44:54.119Z,20.93
2019-02-05T23:47:26.354Z,22.27
2019-02-05T23:49:58.688Z,22.30
2019-02-05T23:52:43.682Z,22.67
2019-02-05T23:55:28.736Z,22.47
2019-02-05T23:58:13.925Z,23.13
